Time;durP1;ratioP1;P1;durP2;ratioP2;P2;SDS_P1;SDS_P2;PMS_P1;PMS_P2;Temp;Humidity;BMP_temperature;BMP_pressure;BME280_temperature;BME280_humidity;BME280_pressure;Samples;Min_cycle;Max_cycle;Signal;HPM_P1;HPM_P2
2022/06/04 00:02:48;;;;;;;0.90;0.90;;;;;;;;;;10437132;28;20224;-73
2022/06/04 00:07:50;;;;;;;3.60;1.20;;;;;;;;;;10435782;28;20226;-73
2022/06/04 00:18:12;;;;;;;1.40;1.40;;;;;;;;;;10441627;28;20312;-73
2022/06/04 00:23:13;;;;;;;1.55;1.40;;;;;;;;;;10444335;28;20235;-72
2022/06/04 00:28:14;;;;;;;1.50;1.50;;;;;;;;;;10421171;28;20203;-73
2022/06/04 00:33:16;;;;;;;1.50;1.40;;;;;;;;;;10439242;28;20412;-73
2022/06/04 00:38:19;;;;;;;1.33;1.27;;;;;;;;;;10437637;28;20569;-74
2022/06/04 00:43:21;;;;;;;1.65;1.55;;;;;;;;;;10439389;28;20322;-73
2022/06/04 00:48:22;;;;;;;1.67;1.67;;;;;;;;;;10444217;28;20209;-73
2022/06/04 00:53:24;;;;;;;1.65;1.65;;;;;;;;;;10444697;28;20210;-73
2022/06/04 00:58:34;;;;;;;1.52;1.52;;;;;;;;;;10434125;28;20276;-72
2022/06/04 01:03:44;;;;;;;1.73;1.63;;;;;;;;;;10437796;28;20309;-73
2022/06/04 01:08:54;;;;;;;1.70;1.60;;;;;;;;;;10431572;28;20226;-72
2022/06/04 01:14:12;;;;;;;1.83;1.67;;;;;;;;;;10431518;28;20207;-73
2022/06/04 01:19:37;;;;;;;1.50;1.40;;;;;;;;;;10430641;28;20212;-72
2022/06/04 01:25:10;;;;;;;2.00;1.90;;;;;;;;;;10439833;28;20233;-72
2022/06/04 01:30:16;;;;;;;1.73;1.73;;;;;;;;;;10387669;28;20206;-73
2022/06/04 01:35:26;;;;;;;2.47;2.28;;;;;;;;;;10443000;28;20215;-73
2022/06/04 01:45:53;;;;;;;2.47;2.05;;;;;;;;;;10438747;28;20304;-72
2022/06/04 01:50:57;;;;;;;2.15;1.92;;;;;;;;;;10430758;28;20210;-72
2022/06/04 01:56:00;;;;;;;2.20;2.05;;;;;;;;;;10436861;28;20190;-71
2022/06/04 02:01:06;;;;;;;2.05;1.92;;;;;;;;;;10436714;28;20226;-72
2022/06/04 02:06:12;;;;;;;2.05;2.05;;;;;;;;;;10442092;28;20256;-72
2022/06/04 02:11:15;;;;;;;2.78;2.28;;;;;;;;;;10450228;28;20252;-72
2022/06/04 02:16:21;;;;;;;2.13;2.03;;;;;;;;;;10443943;28;20214;-72
2022/06/04 02:21:22;;;;;;;2.60;2.40;;;;;;;;;;10430749;28;20210;-72
2022/06/04 02:26:24;;;;;;;2.92;2.72;;;;;;;;;;10449926;28;20210;-71
2022/06/04 02:31:37;;;;;;;2.65;2.55;;;;;;;;;;10460094;28;20214;-71
2022/06/04 02:37:02;;;;;;;3.25;2.08;;;;;;;;;;10467111;28;20186;-72
2022/06/04 02:42:12;;;;;;;7.18;2.42;;;;;;;;;;10437712;28;20336;-72
2022/06/04 02:47:19;;;;;;;2.85;2.47;;;;;;;;;;10461351;28;20335;-72
2022/06/04 02:52:21;;;;;;;2.60;2.42;;;;;;;;;;10467552;28;20202;-72
2022/06/04 02:57:24;;;;;;;2.65;2.55;;;;;;;;;;10429906;28;20226;-72
2022/06/04 03:02:26;;;;;;;2.97;2.80;;;;;;;;;;10464953;28;20210;-71
2022/06/04 03:07:27;;;;;;;2.85;2.65;;;;;;;;;;10452295;28;20242;-73
2022/06/04 03:12:28;;;;;;;2.67;2.50;;;;;;;;;;10443006;28;20211;-72
2022/06/04 03:17:30;;;;;;;3.65;2.20;;;;;;;;;;10439236;28;20210;-72
2022/06/04 03:22:31;;;;;;;2.53;2.33;;;;;;;;;;10412663;28;20195;-72
2022/06/04 03:27:32;;;;;;;2.75;2.33;;;;;;;;;;10436081;28;20341;-72
2022/06/04 03:32:33;;;;;;;4.07;2.10;;;;;;;;;;10431743;28;20234;-72
2022/06/04 03:37:35;;;;;;;2.95;2.53;;;;;;;;;;10437230;28;20208;-71
2022/06/04 03:42:36;;;;;;;3.00;2.72;;;;;;;;;;10432370;28;20290;-72
2022/06/04 03:47:38;;;;;;;3.03;2.88;;;;;;;;;;10435660;28;20187;-74
2022/06/04 03:52:39;;;;;;;2.90;2.67;;;;;;;;;;10432184;28;20778;-72
2022/06/04 03:57:42;;;;;;;2.90;2.80;;;;;;;;;;10438378;28;20222;-71
2022/06/04 04:02:44;;;;;;;3.17;2.90;;;;;;;;;;10439883;28;20781;-71
2022/06/04 04:07:45;;;;;;;3.13;2.92;;;;;;;;;;10442459;28;20229;-71
2022/06/04 04:12:46;;;;;;;3.58;2.70;;;;;;;;;;10433446;28;20213;-72
2022/06/04 04:17:48;;;;;;;4.15;2.95;;;;;;;;;;10427955;28;20620;-72
2022/06/04 04:22:49;;;;;;;3.10;2.90;;;;;;;;;;10412063;28;20194;-72
2022/06/04 04:27:50;;;;;;;3.17;2.97;;;;;;;;;;10426944;28;20203;-72
2022/06/04 04:32:52;;;;;;;2.72;2.63;;;;;;;;;;10435465;28;20794;-71
2022/06/04 04:37:53;;;;;;;2.85;2.75;;;;;;;;;;10426820;28;20268;-71
2022/06/04 04:42:54;;;;;;;2.63;2.63;;;;;;;;;;10432951;28;20221;-72
2022/06/04 04:47:56;;;;;;;2.88;2.50;;;;;;;;;;10443670;28;20582;-72
2022/06/04 04:52:58;;;;;;;3.35;3.08;;;;;;;;;;10436444;28;20721;-72
2022/06/04 04:58:00;;;;;;;2.58;2.33;;;;;;;;;;10435284;28;20210;-71
2022/06/04 05:03:01;;;;;;;3.15;2.95;;;;;;;;;;10435463;28;20222;-72
2022/06/04 05:08:02;;;;;;;3.08;2.55;;;;;;;;;;10438762;28;20317;-74
2022/06/04 05:13:03;;;;;;;2.70;2.55;;;;;;;;;;10440303;28;20206;-72
2022/06/04 05:18:05;;;;;;;2.75;2.58;;;;;;;;;;10432009;28;20383;-74
2022/06/04 05:23:06;;;;;;;2.60;2.42;;;;;;;;;;10411878;28;20207;-74
2022/06/04 05:28:07;;;;;;;2.00;1.90;;;;;;;;;;10420361;28;20202;-74
2022/06/04 05:33:08;;;;;;;2.42;1.55;;;;;;;;;;10424318;28;20759;-74
2022/06/04 05:38:34;;;;;;;2.08;1.90;;;;;;;;;;10417587;28;20301;-74
2022/06/04 05:43:38;;;;;;;2.60;1.60;;;;;;;;;;10417442;28;20237;-73
2022/06/04 05:48:41;;;;;;;2.65;2.20;;;;;;;;;;10419448;28;20195;-74
2022/06/04 05:53:42;;;;;;;1.58;1.48;;;;;;;;;;10427883;28;20202;-74
2022/06/04 05:58:43;;;;;;;1.60;1.50;;;;;;;;;;10435955;28;20238;-74
2022/06/04 06:03:44;;;;;;;1.88;1.52;;;;;;;;;;10427849;28;20341;-75
2022/06/04 06:08:46;;;;;;;1.90;1.80;;;;;;;;;;10436735;28;20226;-74
2022/06/04 06:13:47;;;;;;;1.98;1.88;;;;;;;;;;10415589;28;20202;-74
2022/06/04 06:18:49;;;;;;;1.85;1.80;;;;;;;;;;10437462;28;20207;-75
2022/06/04 06:23:50;;;;;;;1.83;1.83;;;;;;;;;;10418916;28;20207;-75
2022/06/04 06:28:52;;;;;;;2.03;1.80;;;;;;;;;;10426945;28;20198;-74
2022/06/04 06:33:53;;;;;;;3.38;1.65;;;;;;;;;;10433844;28;20230;-74
2022/06/04 06:38:55;;;;;;;1.80;1.67;;;;;;;;;;10432021;28;20742;-74
2022/06/04 06:43:56;;;;;;;3.70;1.58;;;;;;;;;;10430473;28;20345;-75
2022/06/04 06:49:02;;;;;;;1.30;1.25;;;;;;;;;;10434160;28;20189;-75
2022/06/04 06:54:03;;;;;;;1.52;1.42;;;;;;;;;;10411962;28;20210;-75
2022/06/04 06:59:05;;;;;;;2.72;1.67;;;;;;;;;;10437730;28;20213;-76
2022/06/04 07:04:06;;;;;;;1.60;1.30;;;;;;;;;;10456562;28;20210;-72
2022/06/04 07:09:18;;;;;;;2.35;1.17;;;;;;;;;;10449830;28;20222;-76
2022/06/04 07:14:19;;;;;;;1.00;1.00;;;;;;;;;;10455075;28;20206;-76
2022/06/04 07:19:21;;;;;;;1.23;1.23;;;;;;;;;;10455864;28;20253;-76
2022/06/04 07:24:22;;;;;;;1.48;1.08;;;;;;;;;;10456739;28;20829;-75
2022/06/04 07:29:24;;;;;;;1.42;1.35;;;;;;;;;;10433690;28;20185;-75
2022/06/04 07:34:25;;;;;;;0.90;0.90;;;;;;;;;;10422725;28;20218;-76
2022/06/04 07:39:26;;;;;;;1.23;1.00;;;;;;;;;;10442084;28;20206;-75
2022/06/04 07:44:27;;;;;;;2.08;1.10;;;;;;;;;;10429746;28;20205;-75
2022/06/04 07:49:28;;;;;;;1.00;1.00;;;;;;;;;;10432401;28;20183;-75
2022/06/04 07:54:31;;;;;;;1.35;1.25;;;;;;;;;;10411100;28;20207;-74
2022/06/04 07:59:32;;;;;;;1.20;1.10;;;;;;;;;;10428530;28;20215;-74
2022/06/04 08:04:33;;;;;;;1.80;1.15;;;;;;;;;;10435304;28;20785;-75
2022/06/04 08:09:34;;;;;;;2.10;0.98;;;;;;;;;;10432177;28;20233;-75
2022/06/04 08:14:36;;;;;;;1.45;0.90;;;;;;;;;;10439759;28;20248;-75
2022/06/04 08:19:37;;;;;;;1.20;1.10;;;;;;;;;;10439123;28;20233;-75
2022/06/04 08:24:38;;;;;;;1.17;1.17;;;;;;;;;;10449946;28;20195;-75
2022/06/04 08:29:39;;;;;;;1.95;0.80;;;;;;;;;;10438764;28;20186;-76
2022/06/04 08:34:40;;;;;;;0.93;0.90;;;;;;;;;;10442015;28;20298;-75
2022/06/04 08:39:41;;;;;;;1.23;1.13;;;;;;;;;;10451929;28;20264;-74
2022/06/04 08:44:51;;;;;;;0.95;0.95;;;;;;;;;;10451505;28;20195;-75
2022/06/04 08:50:11;;;;;;;1.33;1.08;;;;;;;;;;10450938;28;20819;-76
2022/06/04 09:00:41;;;;;;;0.90;0.90;;;;;;;;;;10443778;28;20625;-75
2022/06/04 09:05:54;;;;;;;1.08;1.00;;;;;;;;;;10427600;28;20254;-75
2022/06/04 09:10:58;;;;;;;1.30;0.90;;;;;;;;;;10427733;28;20262;-75
2022/06/04 09:16:02;;;;;;;1.27;1.20;;;;;;;;;;10426206;28;20294;-76
2022/06/04 09:21:06;;;;;;;1.10;0.85;;;;;;;;;;10443952;28;20204;-75
2022/06/04 09:26:13;;;;;;;1.27;0.90;;;;;;;;;;10466272;28;20207;-74
2022/06/04 09:31:29;;;;;;;0.80;0.80;;;;;;;;;;10435342;28;20946;-75
2022/06/04 09:36:32;;;;;;;1.58;1.00;;;;;;;;;;10438109;28;20194;-76
2022/06/04 09:41:34;;;;;;;0.90;0.80;;;;;;;;;;10418548;28;20225;-76
2022/06/04 09:46:35;;;;;;;3.25;0.90;;;;;;;;;;10437976;28;20569;-75
2022/06/04 09:51:40;;;;;;;0.80;0.80;;;;;;;;;;10436528;28;20952;-75
2022/06/04 09:56:43;;;;;;;1.77;0.80;;;;;;;;;;10427180;28;20650;-75
2022/06/04 10:01:54;;;;;;;2.38;0.88;;;;;;;;;;10435276;28;20218;-75
2022/06/04 10:07:04;;;;;;;1.98;0.85;;;;;;;;;;10421475;28;20605;-76
2022/06/04 10:12:08;;;;;;;0.70;0.70;;;;;;;;;;10407717;28;20258;-75
2022/06/04 10:17:32;;;;;;;0.80;0.80;;;;;;;;;;10420409;28;20186;-77
2022/06/04 10:22:33;;;;;;;1.80;0.70;;;;;;;;;;10436680;28;20297;-75
2022/06/04 10:27:55;;;;;;;1.17;0.75;;;;;;;;;;10448557;28;20725;-75
2022/06/04 10:33:04;;;;;;;0.80;0.80;;;;;;;;;;10426387;28;20217;-75
2022/06/04 10:38:11;;;;;;;0.60;0.60;;;;;;;;;;10450812;28;20202;-75
2022/06/04 10:43:15;;;;;;;1.15;0.80;;;;;;;;;;10454736;28;20191;-75
2022/06/04 10:48:31;;;;;;;2.38;0.90;;;;;;;;;;10438684;28;20186;-75
2022/06/04 10:53:32;;;;;;;2.28;1.00;;;;;;;;;;10459638;28;20202;-74
2022/06/04 10:58:38;;;;;;;1.25;1.00;;;;;;;;;;10459868;28;20263;-74
2022/06/04 11:03:57;;;;;;;0.80;0.80;;;;;;;;;;10459771;28;20214;-75
2022/06/04 11:09:02;;;;;;;1.27;0.88;;;;;;;;;;10435452;28;20248;-77
2022/06/04 11:14:11;;;;;;;0.98;0.98;;;;;;;;;;10456701;28;20218;-75
2022/06/04 11:19:33;;;;;;;1.00;1.00;;;;;;;;;;10455000;28;20232;-74
2022/06/04 11:24:53;;;;;;;1.15;1.15;;;;;;;;;;10459396;28;20325;-76
2022/06/04 11:29:54;;;;;;;1.30;0.90;;;;;;;;;;10452006;28;20212;-75
2022/06/04 11:35:10;;;;;;;0.80;0.80;;;;;;;;;;10451672;28;20268;-74
2022/06/04 11:40:16;;;;;;;0.80;0.80;;;;;;;;;;10409831;28;20891;-76
2022/06/04 11:45:22;;;;;;;0.70;0.70;;;;;;;;;;10431857;28;20225;-75
2022/06/04 11:50:26;;;;;;;0.70;0.70;;;;;;;;;;10435198;28;20182;-75
2022/06/04 11:55:27;;;;;;;1.50;1.05;;;;;;;;;;10453032;28;20222;-75
2022/06/04 12:00:37;;;;;;;0.95;0.90;;;;;;;;;;10443509;28;20235;-76
2022/06/04 12:05:41;;;;;;;1.48;0.60;;;;;;;;;;10422236;28;20237;-76
2022/06/04 12:11:04;;;;;;;0.75;0.75;;;;;;;;;;10418747;28;20269;-75
2022/06/04 12:16:24;;;;;;;0.90;0.90;;;;;;;;;;10453066;28;20617;-75
2022/06/04 12:26:50;;;;;;;0.80;0.80;;;;;;;;;;10459435;28;20178;-75
2022/06/04 12:31:56;;;;;;;0.90;0.90;;;;;;;;;;10437911;28;20874;-75
2022/06/04 12:36:57;;;;;;;0.80;0.80;;;;;;;;;;10450087;28;20693;-76
2022/06/04 12:42:00;;;;;;;0.90;0.90;;;;;;;;;;10457306;28;20210;-76
2022/06/04 12:47:13;;;;;;;1.98;0.73;;;;;;;;;;10454347;28;20854;-76
2022/06/04 12:52:20;;;;;;;0.80;0.80;;;;;;;;;;10463561;28;20225;-77
2022/06/04 12:57:41;;;;;;;0.77;0.77;;;;;;;;;;10483399;28;20218;-76
2022/06/04 13:02:42;;;;;;;2.60;0.80;;;;;;;;;;10465934;28;20202;-75
2022/06/04 13:07:48;;;;;;;0.73;0.73;;;;;;;;;;10431457;28;20219;-76
2022/06/04 13:12:59;;;;;;;0.70;0.65;;;;;;;;;;10410950;28;20234;-76
2022/06/04 13:18:01;;;;;;;0.70;0.70;;;;;;;;;;10392568;28;20241;-75
2022/06/04 13:23:12;;;;;;;2.38;1.05;;;;;;;;;;10391970;28;20203;-76
2022/06/04 13:28:27;;;;;;;1.20;0.73;;;;;;;;;;10388326;28;20590;-76
2022/06/04 13:33:28;;;;;;;0.85;0.85;;;;;;;;;;10387274;28;20315;-76
2022/06/04 13:38:37;;;;;;;0.90;0.90;;;;;;;;;;10414211;28;20198;-76
2022/06/04 13:43:43;;;;;;;3.60;1.30;;;;;;;;;;10417733;28;20260;-76
2022/06/04 13:48:58;;;;;;;1.23;1.08;;;;;;;;;;10412867;28;20236;-77
2022/06/04 13:53:59;;;;;;;2.42;0.60;;;;;;;;;;10407275;28;20542;-76
2022/06/04 13:59:00;;;;;;;1.10;1.10;;;;;;;;;;10416184;28;20262;-76
2022/06/04 14:09:29;;;;;;;0.80;0.80;;;;;;;;;;10389661;28;20649;-78
2022/06/04 14:14:49;;;;;;;0.80;0.80;;;;;;;;;;10421973;28;20234;-76
2022/06/04 14:20:12;;;;;;;1.13;0.80;;;;;;;;;;10420271;28;20207;-76
2022/06/04 14:25:23;;;;;;;2.40;1.02;;;;;;;;;;10419620;28;20210;-77
2022/06/04 14:30:32;;;;;;;0.82;0.82;;;;;;;;;;10430254;28;20175;-77
2022/06/04 14:35:35;;;;;;;0.95;0.95;;;;;;;;;;10415128;28;20578;-77
2022/06/04 14:40:56;;;;;;;1.00;1.00;;;;;;;;;;10404584;28;20214;-77
2022/06/04 14:46:00;;;;;;;1.05;1.00;;;;;;;;;;10398605;28;20242;-77
2022/06/04 14:51:22;;;;;;;0.98;0.93;;;;;;;;;;10417120;28;20197;-77
2022/06/04 14:56:23;;;;;;;0.80;0.80;;;;;;;;;;10422837;28;20214;-77
2022/06/04 15:02:00;;;;;;;0.75;0.75;;;;;;;;;;10410224;28;20245;-77
2022/06/04 15:07:15;;;;;;;0.85;0.85;;;;;;;;;;10278122;28;20674;-77
2022/06/04 15:12:29;;;;;;;0.90;0.90;;;;;;;;;;10406526;28;20195;-78
2022/06/04 15:17:39;;;;;;;1.00;1.00;;;;;;;;;;10427383;28;20187;-76
2022/06/04 15:22:43;;;;;;;0.75;0.75;;;;;;;;;;10390634;28;20235;-77
2022/06/04 15:27:55;;;;;;;1.58;1.35;;;;;;;;;;10419855;28;20301;-77
2022/06/04 15:38:24;;;;;;;0.80;0.80;;;;;;;;;;10413381;28;20679;-76
2022/06/04 15:43:28;;;;;;;0.80;0.80;;;;;;;;;;10420127;28;20207;-77
2022/06/04 15:48:32;;;;;;;0.82;0.82;;;;;;;;;;10395489;28;20191;-77
2022/06/04 15:59:13;;;;;;;6.47;1.38;;;;;;;;;;10399397;28;20961;-77
2022/06/04 16:04:14;;;;;;;1.38;1.38;;;;;;;;;;10415318;28;20226;-77
2022/06/04 16:09:19;;;;;;;2.35;1.50;;;;;;;;;;10417276;28;20254;-76
2022/06/04 16:14:39;;;;;;;2.50;2.40;;;;;;;;;;10412321;28;20218;-77
2022/06/04 16:19:56;;;;;;;1.52;1.52;;;;;;;;;;10399547;28;20203;-77
2022/06/04 16:25:23;;;;;;;1.42;0.90;;;;;;;;;;10396606;28;20198;-76
2022/06/04 16:30:25;;;;;;;1.27;0.90;;;;;;;;;;10400087;28;20668;-77
2022/06/04 16:35:26;;;;;;;1.15;1.15;;;;;;;;;;10399545;28;20199;-77
2022/06/04 16:45:50;;;;;;;4.13;1.20;;;;;;;;;;10392497;28;20206;-76
2022/06/04 16:50:52;;;;;;;1.10;1.10;;;;;;;;;;10402951;28;20187;-76
2022/06/04 16:55:53;;;;;;;1.02;1.00;;;;;;;;;;10393349;28;20207;-77
2022/06/04 17:01:04;;;;;;;1.38;1.10;;;;;;;;;;10408766;28;20227;-77
2022/06/04 17:06:11;;;;;;;1.10;1.10;;;;;;;;;;10386740;28;20325;-77
2022/06/04 17:11:13;;;;;;;0.98;0.95;;;;;;;;;;10418341;28;20178;-77
2022/06/04 17:16:21;;;;;;;1.13;1.13;;;;;;;;;;10430730;28;20262;-76
2022/06/04 17:21:41;;;;;;;1.38;1.30;;;;;;;;;;10438035;28;20589;-76
2022/06/04 17:26:52;;;;;;;1.23;1.15;;;;;;;;;;10443703;28;20223;-76
2022/06/04 17:31:56;;;;;;;1.02;1.02;;;;;;;;;;10445284;28;20272;-76
2022/06/04 17:37:06;;;;;;;1.17;1.17;;;;;;;;;;10431946;28;20313;-76
2022/06/04 17:42:07;;;;;;;1.35;1.35;;;;;;;;;;10439448;28;20232;-76
2022/06/04 17:47:08;;;;;;;1.27;1.23;;;;;;;;;;10422559;28;20186;-77
2022/06/04 17:52:11;;;;;;;1.50;1.50;;;;;;;;;;10440376;28;20707;-76
2022/06/04 17:57:12;;;;;;;1.02;1.02;;;;;;;;;;10459168;28;20249;-76
2022/06/04 18:02:13;;;;;;;1.10;1.10;;;;;;;;;;10439958;28;21073;-76
2022/06/04 18:07:14;;;;;;;2.72;0.88;;;;;;;;;;10443149;28;20244;-76
2022/06/04 18:12:15;;;;;;;3.08;1.02;;;;;;;;;;10431277;28;20259;-78
2022/06/04 18:17:16;;;;;;;1.13;1.02;;;;;;;;;;10444081;28;20244;-76
2022/06/04 18:22:18;;;;;;;1.00;1.00;;;;;;;;;;10408155;28;20214;-76
2022/06/04 18:27:19;;;;;;;0.95;0.95;;;;;;;;;;10434721;28;20176;-76
2022/06/04 18:32:20;;;;;;;0.80;0.80;;;;;;;;;;10442021;28;20201;-77
2022/06/04 18:37:21;;;;;;;1.33;0.88;;;;;;;;;;10450026;28;20265;-76
2022/06/04 18:58:22;;;;;;;2.05;1.05;;;;;;;;;;10439843;28;21022;-76
2022/06/04 19:03:23;;;;;;;1.33;0.77;;;;;;;;;;10442706;28;20262;-75
2022/06/04 19:08:24;;;;;;;0.93;0.82;;;;;;;;;;10439968;28;20217;-75
2022/06/04 19:18:42;;;;;;;1.00;0.95;;;;;;;;;;10452318;28;20203;-74
2022/06/04 19:29:04;;;;;;;0.98;0.98;;;;;;;;;;10440756;28;20182;-75
2022/06/04 19:34:05;;;;;;;3.30;0.98;;;;;;;;;;10430053;28;20222;-75
2022/06/04 19:39:07;;;;;;;1.88;1.25;;;;;;;;;;10426204;28;20198;-75
2022/06/04 19:44:17;;;;;;;1.30;1.30;;;;;;;;;;10455000;28;20285;-75
2022/06/04 19:49:19;;;;;;;1.13;1.13;;;;;;;;;;10455777;28;20183;-75
2022/06/04 19:59:41;;;;;;;3.80;1.80;;;;;;;;;;10454070;28;20752;-74
2022/06/04 20:04:43;;;;;;;1.85;1.75;;;;;;;;;;10438713;28;20211;-74
2022/06/04 20:09:44;;;;;;;2.10;2.00;;;;;;;;;;10462519;28;20849;-75
2022/06/04 20:14:46;;;;;;;2.30;2.20;;;;;;;;;;10458632;28;20222;-74
2022/06/04 20:19:49;;;;;;;3.05;2.97;;;;;;;;;;10446671;28;21149;-74
2022/06/04 20:24:50;;;;;;;2.70;2.50;;;;;;;;;;10437544;28;20930;-74
2022/06/04 20:29:52;;;;;;;2.65;2.55;;;;;;;;;;10445467;28;20178;-74
2022/06/04 20:34:53;;;;;;;2.63;2.55;;;;;;;;;;10429989;28;20206;-75
2022/06/04 20:39:54;;;;;;;2.33;2.22;;;;;;;;;;10435505;28;20202;-76
2022/06/04 20:44:55;;;;;;;2.10;2.00;;;;;;;;;;10434949;28;20202;-75
2022/06/04 20:49:57;;;;;;;3.03;2.92;;;;;;;;;;10429269;28;20187;-74
2022/06/04 20:54:58;;;;;;;3.45;3.20;;;;;;;;;;10420937;28;20202;-74
2022/06/04 21:00:00;;;;;;;3.45;3.38;;;;;;;;;;10427062;28;20207;-75
2022/06/04 21:05:01;;;;;;;3.60;3.50;;;;;;;;;;10431382;28;20214;-74
2022/06/04 21:10:03;;;;;;;4.07;3.97;;;;;;;;;;10442861;28;20186;-75
2022/06/04 21:15:05;;;;;;;3.38;3.15;;;;;;;;;;10433934;28;20194;-75
2022/06/04 21:20:06;;;;;;;3.15;3.00;;;;;;;;;;10444358;28;20223;-75
2022/06/04 21:25:08;;;;;;;3.22;3.13;;;;;;;;;;10441243;28;20230;-74
2022/06/04 21:30:09;;;;;;;3.05;2.83;;;;;;;;;;10434588;28;20266;-75
2022/06/04 21:40:33;;;;;;;2.88;2.67;;;;;;;;;;10447658;28;20260;-76
2022/06/04 21:45:34;;;;;;;2.50;2.47;;;;;;;;;;10438766;28;20697;-75
2022/06/04 21:50:37;;;;;;;3.10;3.08;;;;;;;;;;10455430;28;20187;-73
2022/06/04 21:55:39;;;;;;;2.58;2.58;;;;;;;;;;10456590;28;20202;-72
2022/06/04 22:00:40;;;;;;;2.92;2.83;;;;;;;;;;10441553;28;20350;-73
2022/06/04 22:05:41;;;;;;;3.67;2.55;;;;;;;;;;10434996;28;20253;-72
2022/06/04 22:10:42;;;;;;;2.58;2.25;;;;;;;;;;10413805;28;20867;-72
2022/06/04 22:15:43;;;;;;;2.72;2.47;;;;;;;;;;10416187;28;20617;-72
2022/06/04 22:20:45;;;;;;;2.03;2.03;;;;;;;;;;10401228;28;20202;-71
2022/06/04 22:25:46;;;;;;;1.98;1.90;;;;;;;;;;10402548;28;20249;-73
2022/06/04 22:30:47;;;;;;;2.22;2.20;;;;;;;;;;10406289;28;20272;-73
2022/06/04 22:35:48;;;;;;;2.33;2.22;;;;;;;;;;10395880;28;20202;-72
2022/06/04 22:40:51;;;;;;;2.17;2.17;;;;;;;;;;10408924;28;20214;-73
2022/06/04 22:45:52;;;;;;;2.33;2.30;;;;;;;;;;10416917;28;20698;-72
2022/06/04 22:51:02;;;;;;;2.75;2.65;;;;;;;;;;10402588;28;20736;-72
2022/06/04 22:56:03;;;;;;;2.40;2.30;;;;;;;;;;10408227;28;20203;-71
2022/06/04 23:01:05;;;;;;;2.53;2.38;;;;;;;;;;10407558;28;20232;-72
2022/06/04 23:06:06;;;;;;;2.47;2.38;;;;;;;;;;10415122;28;20230;-72
2022/06/04 23:21:47;;;;;;;2.75;2.65;;;;;;;;;;10442329;28;20340;-72
2022/06/04 23:26:48;;;;;;;2.83;2.72;;;;;;;;;;10450361;28;20849;-72
2022/06/04 23:31:49;;;;;;;2.95;2.75;;;;;;;;;;10446597;28;20202;-72
2022/06/04 23:36:52;;;;;;;3.08;2.40;;;;;;;;;;10450879;28;20167;-72
2022/06/04 23:42:06;;;;;;;2.58;2.47;;;;;;;;;;10444278;28;20272;-73
2022/06/04 23:47:07;;;;;;;2.80;2.70;;;;;;;;;;10457613;28;20265;-73
2022/06/04 23:52:09;;;;;;;2.60;2.50;;;;;;;;;;10426713;28;20202;-73
2022/06/04 23:57:11;;;;;;;3.38;3.10;;;;;;;;;;10456789;28;20186;-73
